createdAt,value
2022-10-21T00:01:30.696Z,6.30
2022-10-21T00:03:59.339Z,6.28
2022-10-21T00:06:28.159Z,6.32
2022-10-21T00:08:56.853Z,6.31
2022-10-21T00:11:25.663Z,6.32
2022-10-21T00:13:54.239Z,6.32
2022-10-21T00:16:25.112Z,6.29
2022-10-21T00:18:53.816Z,6.31
2022-10-21T00:21:23.611Z,6.29
2022-10-21T00:23:52.373Z,6.24
2022-10-21T00:26:21.549Z,6.27
2022-10-21T00:28:50.189Z,6.31
2022-10-21T00:31:18.742Z,6.29
2022-10-21T00:33:48.811Z,6.33
2022-10-21T00:36:17.470Z,6.25
2022-10-21T00:38:48.405Z,6.19
2022-10-21T00:41:20.048Z,6.17
2022-10-21T00:44:01.013Z,6.22
2022-10-21T00:46:36.820Z,6.26
2022-10-21T00:49:14.311Z,6.24
2022-10-21T00:51:43.849Z,6.26
2022-10-21T00:54:12.710Z,6.25
2022-10-21T00:56:45.675Z,6.21
2022-10-21T00:59:15.382Z,6.19
2022-10-21T01:01:44.237Z,6.21
2022-10-21T01:04:14.167Z,6.18
2022-10-21T01:06:43.877Z,6.14
2022-10-21T01:09:13.967Z,6.11
2022-10-21T01:11:45.888Z,6.12
2022-10-21T01:14:30.599Z,6.03
2022-10-21T01:17:20.653Z,5.95
2022-10-21T01:20:17.870Z,5.90
2022-10-21T01:23:08.509Z,5.85
2022-10-21T01:25:59.421Z,5.89
2022-10-21T01:28:41.919Z,5.92
2022-10-21T01:31:19.680Z,5.92
2022-10-21T01:33:55.831Z,5.94
2022-10-21T01:36:32.497Z,5.95
2022-10-21T01:39:12.437Z,5.96
2022-10-21T01:41:45.028Z,5.92
2022-10-21T01:44:20.291Z,5.94
2022-10-21T01:46:57.436Z,5.94
2022-10-21T01:49:31.519Z,5.90
2022-10-21T01:52:02.471Z,5.94
2022-10-21T01:54:35.158Z,6.01
2022-10-21T01:57:08.051Z,6.03
2022-10-21T01:59:37.424Z,6.02
2022-10-21T02:02:09.719Z,5.96
2022-10-21T02:04:42.740Z,5.96
2022-10-21T02:07:11.640Z,5.99
2022-10-21T02:09:40.299Z,6.03
2022-10-21T02:12:09.318Z,5.99
2022-10-21T02:14:42.791Z,5.98
2022-10-21T02:17:16.901Z,5.95
2022-10-21T02:19:46.920Z,5.96
2022-10-21T02:22:22.102Z,5.95
2022-10-21T02:24:54.982Z,5.89
2022-10-21T02:27:24.671Z,5.90
2022-10-21T02:29:54.310Z,5.90
2022-10-21T02:32:31.997Z,5.86
2022-10-21T02:35:11.345Z,5.76
2022-10-21T02:37:50.990Z,5.69
2022-10-21T02:40:22.168Z,5.68
2022-10-21T02:42:56.499Z,5.68
2022-10-21T02:45:25.339Z,5.64
2022-10-21T02:47:55.738Z,5.66
2022-10-21T02:50:24.327Z,5.64
2022-10-21T02:52:52.966Z,5.66
2022-10-21T02:55:21.540Z,5.58
2022-10-21T02:57:50.350Z,5.51
2022-10-21T03:00:19.040Z,5.54
2022-10-21T03:02:47.686Z,5.60
2022-10-21T03:05:18.147Z,5.61
2022-10-21T03:07:46.805Z,5.61
2022-10-21T03:10:15.420Z,5.61
2022-10-21T03:12:44.601Z,5.57
2022-10-21T03:15:13.270Z,5.54
2022-10-21T03:17:42.147Z,5.58
2022-10-21T03:20:11.311Z,5.60
2022-10-21T03:22:41.338Z,5.58
2022-10-21T03:25:10.637Z,5.52
2022-10-21T03:27:39.528Z,5.50
2022-10-21T03:30:10.050Z,5.50
2022-10-21T03:32:39.314Z,5.52
2022-10-21T03:35:09.319Z,5.54
2022-10-21T03:37:38.050Z,5.58
2022-10-21T03:40:12.295Z,5.59
2022-10-21T03:42:41.779Z,5.48
2022-10-21T03:45:11.822Z,5.56
2022-10-21T03:47:40.637Z,5.58
2022-10-21T03:50:13.903Z,5.61
2022-10-21T03:52:45.348Z,5.61
2022-10-21T03:55:15.356Z,5.60
2022-10-21T03:57:44.010Z,5.64
2022-10-21T04:00:14.423Z,5.66
2022-10-21T04:02:44.079Z,5.65
2022-10-21T04:05:13.159Z,5.64
2022-10-21T04:07:41.975Z,5.63
2022-10-21T04:10:11.791Z,5.66
2022-10-21T04:12:41.958Z,5.64
2022-10-21T04:15:14.001Z,5.62
2022-10-21T04:17:43.287Z,5.62
2022-10-21T04:20:12.596Z,5.61
2022-10-21T04:22:41.456Z,5.68
2022-10-21T04:25:11.315Z,5.71
2022-10-21T04:27:41.263Z,5.74
2022-10-21T04:30:10.919Z,5.79
2022-10-21T04:32:39.616Z,5.81
2022-10-21T04:35:08.718Z,5.83
2022-10-21T04:37:40.423Z,5.87
2022-10-21T04:40:10.636Z,5.98
2022-10-21T04:42:39.311Z,6.08
2022-10-21T04:45:10.837Z,6.10
2022-10-21T04:47:39.887Z,6.11
2022-10-21T04:50:09.791Z,6.15
2022-10-21T04:52:38.501Z,6.21
2022-10-21T04:55:08.299Z,6.24
2022-10-21T04:57:36.918Z,6.22
2022-10-21T05:00:06.650Z,6.23
2022-10-21T05:02:37.505Z,6.25
2022-10-21T05:05:07.368Z,6.30
2022-10-21T05:07:36.041Z,6.39
2022-10-21T05:10:04.922Z,6.44
2022-10-21T05:12:33.433Z,6.46
2022-10-21T05:15:02.433Z,6.55
2022-10-21T05:17:31.249Z,6.57
2022-10-21T05:20:01.258Z,6.68
2022-10-21T05:22:29.951Z,6.76
2022-10-21T05:24:58.511Z,6.84
2022-10-21T05:27:27.299Z,6.85
2022-10-21T05:29:55.850Z,6.85
2022-10-21T05:32:24.531Z,6.90
2022-10-21T05:34:53.129Z,6.96
2022-10-21T05:37:23.291Z,7.01
2022-10-21T05:39:51.877Z,7.05
2022-10-21T05:42:20.529Z,7.10
2022-10-21T05:44:49.650Z,7.14
2022-10-21T05:47:18.230Z,7.18
2022-10-21T05:49:46.922Z,7.24
2022-10-21T05:52:15.428Z,7.31
2022-10-21T05:54:45.477Z,7.42
2022-10-21T05:57:14.181Z,7.47
2022-10-21T05:59:42.800Z,7.47
2022-10-21T06:02:11.644Z,7.57
2022-10-21T06:04:40.330Z,7.62
2022-10-21T06:07:08.971Z,7.65
2022-10-21T06:09:38.030Z,7.71
2022-10-21T06:12:08.232Z,7.76
2022-10-21T06:14:36.971Z,7.83
2022-10-21T06:17:06.358Z,7.90
2022-10-21T06:19:35.020Z,7.95
2022-10-21T06:22:03.538Z,8.02
2022-10-21T06:24:33.430Z,8.07
2022-10-21T06:27:02.121Z,8.09
2022-10-21T06:29:32.290Z,8.19
2022-10-21T06:32:00.971Z,8.25
2022-10-21T06:34:29.559Z,8.27
2022-10-21T06:36:58.246Z,8.35
2022-10-21T06:39:26.883Z,8.42
2022-10-21T06:41:55.592Z,8.49
2022-10-21T06:44:43.613Z,8.56
2022-10-21T06:47:12.507Z,8.58
2022-10-21T06:49:41.030Z,8.66
2022-10-21T06:52:09.670Z,8.74
2022-10-21T06:54:38.150Z,8.81
2022-10-21T06:57:06.775Z,8.88
2022-10-21T06:59:35.223Z,8.96
2022-10-21T07:02:05.228Z,9.02
2022-10-21T07:04:33.716Z,9.09
2022-10-21T07:07:02.294Z,9.09
2022-10-21T07:09:30.951Z,9.12
2022-10-21T07:11:59.445Z,9.16
2022-10-21T07:14:28.329Z,9.19
2022-10-21T07:16:56.834Z,9.25
2022-10-21T07:19:26.781Z,9.31
2022-10-21T07:21:55.801Z,9.34
2022-10-21T07:24:24.393Z,9.39
2022-10-21T07:26:52.983Z,9.41
2022-10-21T07:29:21.557Z,9.49
2022-10-21T07:31:50.402Z,9.54
2022-10-21T07:34:19.160Z,9.56
2022-10-21T07:36:53.205Z,9.64
2022-10-21T07:39:25.153Z,9.60
2022-10-21T07:41:56.145Z,9.62
2022-10-21T07:44:27.293Z,9.63
2022-10-21T07:46:56.027Z,9.68
2022-10-21T07:49:25.803Z,9.76
2022-10-21T07:51:55.739Z,9.89
2022-10-21T07:54:24.610Z,10.18
2022-10-21T07:56:53.925Z,10.54
2022-10-21T07:59:24.486Z,10.78
2022-10-21T08:01:54.247Z,10.92
2022-10-21T08:04:24.823Z,11.00
2022-10-21T08:06:53.603Z,11.08
2022-10-21T08:09:23.906Z,11.13
2022-10-21T08:11:52.481Z,11.11
2022-10-21T08:14:21.007Z,11.13
2022-10-21T08:16:54.010Z,11.17
2022-10-21T08:19:29.742Z,11.28
2022-10-21T08:21:59.155Z,11.42
2022-10-21T08:24:29.808Z,11.55
2022-10-21T08:26:58.334Z,11.56
2022-10-21T08:29:27.155Z,11.54
2022-10-21T08:31:55.805Z,11.62
2022-10-21T08:34:24.649Z,11.71
2022-10-21T08:36:53.205Z,11.86
2022-10-21T08:39:21.892Z,12.00
2022-10-21T08:42:06.329Z,12.02
2022-10-21T08:44:44.486Z,12.04
2022-10-21T08:47:32.166Z,12.09
2022-10-21T08:50:04.951Z,12.14
2022-10-21T08:52:41.703Z,12.24
2022-10-21T08:55:18.116Z,12.21
2022-10-21T08:57:49.219Z,12.21
2022-10-21T09:00:21.634Z,12.20
2022-10-21T09:03:05.271Z,12.18
2022-10-21T09:05:59.911Z,12.19
2022-10-21T09:08:37.835Z,12.24
2022-10-21T09:11:14.341Z,12.27
2022-10-21T09:13:57.140Z,12.34
2022-10-21T09:16:35.342Z,12.36
2022-10-21T09:19:15.339Z,12.36
2022-10-21T09:22:10.876Z,12.34
2022-10-21T09:24:55.932Z,12.32
2022-10-21T09:27:32.337Z,12.32
2022-10-21T09:30:18.461Z,12.27
2022-10-21T09:32:51.276Z,12.24
2022-10-21T09:35:28.463Z,12.21
2022-10-21T09:38:00.160Z,12.21
2022-10-21T09:40:31.672Z,12.23
2022-10-21T09:43:03.192Z,12.23
2022-10-21T09:45:36.520Z,12.28
2022-10-21T09:48:08.662Z,12.29
2022-10-21T09:50:39.047Z,12.27
2022-10-21T09:53:14.937Z,12.22
2022-10-21T09:55:47.297Z,12.22
2022-10-21T09:58:26.628Z,12.19
2022-10-21T10:00:57.417Z,12.20
2022-10-21T10:03:34.734Z,12.21
2022-10-21T10:06:04.276Z,12.26
2022-10-21T10:08:38.618Z,12.32
2022-10-21T10:11:19.654Z,12.36
2022-10-21T10:13:50.295Z,12.40
2022-10-21T10:16:28.783Z,12.39
2022-10-21T10:19:16.927Z,12.39
2022-10-21T10:21:48.298Z,12.38
2022-10-21T10:24:19.570Z,12.44
2022-10-21T10:26:49.258Z,12.42
2022-10-21T10:29:24.298Z,12.38
2022-10-21T10:31:57.581Z,12.37
2022-10-21T10:34:32.527Z,12.33
2022-10-21T10:37:04.669Z,12.38
2022-10-21T10:39:36.248Z,12.34
2022-10-21T10:42:05.382Z,12.26
2022-10-21T10:44:39.122Z,12.36
2022-10-21T10:47:19.801Z,12.39
2022-10-21T10:49:48.758Z,12.39
2022-10-21T10:52:22.697Z,12.42
2022-10-21T10:55:19.796Z,12.39
2022-10-21T10:57:59.293Z,12.41
2022-10-21T11:00:42.048Z,12.45
2022-10-21T11:03:16.120Z,12.49
2022-10-21T11:05:48.181Z,12.51
2022-10-21T11:08:19.498Z,12.47
2022-10-21T11:10:54.777Z,12.37
2022-10-21T11:13:24.977Z,12.49
2022-10-21T11:16:11.515Z,12.52
2022-10-21T11:18:49.423Z,12.54
2022-10-21T11:21:44.117Z,12.55
2022-10-21T11:24:30.305Z,12.57
2022-10-21T11:27:06.296Z,12.62
2022-10-21T11:29:47.629Z,12.69
2022-10-21T11:32:42.612Z,12.72
2022-10-21T11:35:20.309Z,12.78
2022-10-21T11:38:00.781Z,12.83
2022-10-21T11:40:40.540Z,12.87
2022-10-21T11:43:18.901Z,12.86
2022-10-21T11:45:58.904Z,12.89
2022-10-21T11:48:43.322Z,12.91
2022-10-21T11:51:23.842Z,12.95
2022-10-21T11:54:09.330Z,12.97
2022-10-21T11:56:45.091Z,12.96
2022-10-21T11:59:30.903Z,13.03
2022-10-21T12:02:10.497Z,13.08
2022-10-21T12:04:51.174Z,13.14
2022-10-21T12:07:35.511Z,13.18
2022-10-21T12:10:12.028Z,13.20
2022-10-21T12:12:46.410Z,13.21
2022-10-21T12:15:21.242Z,13.20
2022-10-21T12:17:51.197Z,13.22
2022-10-21T12:20:24.372Z,13.23
2022-10-21T12:22:57.256Z,13.24
2022-10-21T12:25:35.116Z,13.25
2022-10-21T12:28:09.405Z,13.24
2022-10-21T12:30:44.974Z,13.23
2022-10-21T12:33:19.235Z,13.21
2022-10-21T12:35:53.382Z,13.21
2022-10-21T12:38:26.725Z,13.21
2022-10-21T12:41:20.181Z,13.21
2022-10-21T12:43:54.687Z,13.23
2022-10-21T12:46:30.165Z,13.25
2022-10-21T12:49:02.657Z,13.26
2022-10-21T12:51:33.917Z,13.28
2022-10-21T12:54:09.988Z,13.30
2022-10-21T12:56:45.275Z,13.30
2022-10-21T12:59:30.305Z,13.29
2022-10-21T13:02:20.133Z,13.27
2022-10-21T13:04:52.754Z,13.22
2022-10-21T13:07:36.600Z,13.21
2022-10-21T13:10:26.586Z,13.24
2022-10-21T13:13:17.174Z,13.22
2022-10-21T13:15:48.359Z,13.22
2022-10-21T13:18:43.843Z,13.18
2022-10-21T13:21:27.666Z,13.14
2022-10-21T13:23:58.410Z,13.12
2022-10-21T13:26:30.337Z,13.09
2022-10-21T13:29:03.735Z,13.07
2022-10-21T13:31:32.572Z,13.06
2022-10-21T13:34:01.757Z,13.07
2022-10-21T13:36:40.075Z,13.06
2022-10-21T13:39:24.745Z,13.08
2022-10-21T13:42:01.234Z,13.07
2022-10-21T13:44:35.291Z,13.09
2022-10-21T13:47:25.770Z,13.18
2022-10-21T13:49:56.276Z,13.20
2022-10-21T13:52:30.696Z,13.25
2022-10-21T13:55:00.455Z,13.25
2022-10-21T13:57:32.460Z,13.24
2022-10-21T14:00:02.313Z,13.23
2022-10-21T14:02:33.568Z,13.24
2022-10-21T14:05:02.592Z,13.28
2022-10-21T14:07:33.937Z,13.29
2022-10-21T14:10:07.543Z,13.26
2022-10-21T14:12:42.348Z,13.31
2022-10-21T14:15:19.425Z,13.31
2022-10-21T14:17:55.630Z,13.32
2022-10-21T14:20:30.509Z,13.33
2022-10-21T14:23:02.683Z,13.31
2022-10-21T14:25:32.148Z,13.28
2022-10-21T14:28:01.870Z,13.27
2022-10-21T14:30:33.665Z,13.28
2022-10-21T14:33:06.411Z,13.29
2022-10-21T14:35:35.151Z,13.26
2022-10-21T14:38:25.731Z,13.27
2022-10-21T14:41:00.399Z,13.26
2022-10-21T14:43:35.409Z,13.26
2022-10-21T14:46:07.592Z,13.25
2022-10-21T14:48:39.023Z,13.28
2022-10-21T14:51:11.548Z,13.24
2022-10-21T14:53:49.435Z,13.22
2022-10-21T14:56:21.998Z,13.17
2022-10-21T14:58:58.124Z,13.14
2022-10-21T15:01:27.121Z,13.14
2022-10-21T15:03:58.302Z,13.17
2022-10-21T15:06:29.499Z,13.13
2022-10-21T15:09:09.465Z,13.11
2022-10-21T15:11:42.997Z,13.12
2022-10-21T15:14:33.431Z,13.16
2022-10-21T15:17:04.977Z,13.16
2022-10-21T15:19:46.092Z,13.16
2022-10-21T15:22:26.620Z,13.16
2022-10-21T15:25:01.731Z,13.14
2022-10-21T15:27:37.135Z,13.14
2022-10-21T15:30:15.518Z,13.07
2022-10-21T15:32:44.274Z,12.97
2022-10-21T15:35:15.262Z,13.01
2022-10-21T15:37:43.950Z,13.01
2022-10-21T15:40:14.332Z,13.02
2022-10-21T15:42:43.941Z,13.01
2022-10-21T15:45:15.282Z,12.99
2022-10-21T15:47:44.030Z,13.00
2022-10-21T15:50:15.789Z,12.97
2022-10-21T15:52:44.548Z,12.95
2022-10-21T15:55:14.760Z,12.96
2022-10-21T15:57:44.813Z,12.97
2022-10-21T16:00:19.605Z,13.01
2022-10-21T16:02:49.189Z,13.01
2022-10-21T16:05:17.570Z,12.99
2022-10-21T16:07:46.449Z,12.98
2022-10-21T16:10:21.321Z,12.96
2022-10-21T16:12:51.420Z,12.93
2022-10-21T16:15:21.130Z,12.87
2022-10-21T16:17:51.180Z,12.84
2022-10-21T16:20:22.976Z,12.90
2022-10-21T16:22:51.623Z,12.87
2022-10-21T16:25:21.853Z,12.81
2022-10-21T16:27:56.171Z,12.80
2022-10-21T16:30:27.453Z,12.77
2022-10-21T16:32:57.344Z,12.69
2022-10-21T16:35:26.407Z,12.73
2022-10-21T16:37:55.979Z,12.70
2022-10-21T16:40:28.485Z,12.69
2022-10-21T16:42:57.050Z,12.65
2022-10-21T16:45:30.392Z,12.64
2022-10-21T16:48:01.552Z,12.62
2022-10-21T16:50:39.849Z,12.59
2022-10-21T16:53:09.311Z,12.53
2022-10-21T16:55:39.182Z,12.48
2022-10-21T16:58:07.878Z,12.46
2022-10-21T17:00:37.218Z,12.46
2022-10-21T17:03:06.121Z,12.44
2022-10-21T17:08:08.113Z,12.44
2022-10-21T17:10:36.602Z,12.44
2022-10-21T17:13:06.673Z,12.43
2022-10-21T17:15:35.340Z,12.40
2022-10-21T17:18:04.051Z,12.42
2022-10-21T17:20:33.602Z,12.40
2022-10-21T17:23:02.482Z,12.39
2022-10-21T17:25:31.811Z,12.38
2022-10-21T17:28:00.321Z,12.37
2022-10-21T17:30:31.212Z,12.36
2022-10-21T17:33:00.011Z,12.36
2022-10-21T17:35:28.536Z,12.35
2022-10-21T17:37:57.145Z,12.32
2022-10-21T17:40:28.826Z,12.30
2022-10-21T17:42:58.586Z,12.27
2022-10-21T17:45:27.163Z,12.28
2022-10-21T17:47:57.136Z,12.29
2022-10-21T17:50:26.919Z,12.29
2022-10-21T17:52:56.443Z,12.29
2022-10-21T17:55:25.202Z,12.29
2022-10-21T17:57:55.695Z,12.30
2022-10-21T18:00:24.263Z,12.32
2022-10-21T18:02:52.925Z,12.33
2022-10-21T18:05:22.878Z,12.35
2022-10-21T18:07:51.525Z,12.37
2022-10-21T18:10:20.172Z,12.37
2022-10-21T18:12:48.753Z,12.37
2022-10-21T18:15:17.314Z,12.39
2022-10-21T18:17:46.183Z,12.38
2022-10-21T18:20:16.805Z,12.36
2022-10-21T18:22:47.585Z,12.33
2022-10-21T18:25:16.813Z,12.31
2022-10-21T18:27:45.355Z,12.30
2022-10-21T18:30:14.146Z,12.30
2022-10-21T18:32:43.008Z,12.30
2022-10-21T18:35:11.662Z,12.28
2022-10-21T18:37:40.436Z,12.28
2022-10-21T18:40:11.902Z,12.28
2022-10-21T18:42:40.753Z,12.28
2022-10-21T18:45:10.053Z,12.29
2022-10-21T18:47:39.426Z,12.27
2022-10-21T18:50:11.326Z,12.27
2022-10-21T18:52:39.996Z,12.27
2022-10-21T18:55:08.843Z,12.28
2022-10-21T18:57:39.102Z,12.29
2022-10-21T19:00:09.383Z,12.30
2022-10-21T19:02:37.864Z,12.32
2022-10-21T19:05:07.222Z,12.33
2022-10-21T19:07:36.275Z,12.31
2022-10-21T19:10:06.029Z,12.32
2022-10-21T19:12:34.571Z,12.34
2022-10-21T19:15:04.866Z,12.33
2022-10-21T19:17:33.674Z,12.33
2022-10-21T19:20:03.514Z,12.35
2022-10-21T19:22:32.140Z,12.34
2022-10-21T19:25:00.693Z,12.34
2022-10-21T19:27:29.553Z,12.28
2022-10-21T19:29:58.133Z,12.32
2022-10-21T19:32:28.086Z,12.35
2022-10-21T19:34:56.561Z,12.34
2022-10-21T19:37:25.193Z,12.36
2022-10-21T19:39:54.104Z,12.35
2022-10-21T19:42:22.564Z,12.31
2022-10-21T19:44:51.304Z,12.31
2022-10-21T19:47:19.754Z,12.32
2022-10-21T19:49:49.622Z,12.32
2022-10-21T19:52:18.213Z,12.32
2022-10-21T19:54:49.425Z,12.33
2022-10-21T19:57:18.659Z,12.34
2022-10-21T19:59:49.040Z,12.32
2022-10-21T20:02:18.150Z,12.31
2022-10-21T20:04:46.667Z,12.31
2022-10-21T20:07:16.674Z,12.30
2022-10-21T20:09:45.554Z,12.28
2022-10-21T20:12:14.132Z,12.25
2022-10-21T20:14:44.227Z,12.22
2022-10-21T20:17:16.208Z,12.18
2022-10-21T20:19:48.663Z,12.16
2022-10-21T20:22:19.127Z,12.12
2022-10-21T20:24:47.782Z,12.12
2022-10-21T20:27:16.353Z,12.09
2022-10-21T20:29:45.137Z,12.06
2022-10-21T20:32:13.774Z,12.05
2022-10-21T20:34:43.634Z,12.04
2022-10-21T20:37:12.234Z,12.01
2022-10-21T20:39:42.255Z,11.99
2022-10-21T20:42:10.820Z,11.98
2022-10-21T20:44:39.516Z,11.99
2022-10-21T20:47:08.096Z,11.99
2022-10-21T20:49:36.798Z,11.98
2022-10-21T20:52:05.705Z,11.97
2022-10-21T20:54:34.298Z,11.97
2022-10-21T20:57:04.805Z,11.96
2022-10-21T20:59:33.539Z,11.96
2022-10-21T21:02:02.287Z,11.96
2022-10-21T21:04:30.866Z,11.94
2022-10-21T21:06:59.337Z,11.94
2022-10-21T21:09:50.060Z,11.94
2022-10-21T21:12:18.658Z,11.91
2022-10-21T21:14:47.195Z,11.91
2022-10-21T21:17:15.924Z,11.94
2022-10-21T21:19:44.576Z,11.92
2022-10-21T21:22:13.083Z,11.94
2022-10-21T21:24:41.733Z,11.92
2022-10-21T21:27:10.421Z,11.89
2022-10-21T21:29:40.364Z,11.88
2022-10-21T21:32:08.956Z,11.86
2022-10-21T21:34:37.572Z,11.84
2022-10-21T21:37:06.137Z,11.80
2022-10-21T21:39:34.677Z,11.80
2022-10-21T21:42:03.339Z,11.80
2022-10-21T21:44:32.072Z,11.79
2022-10-21T21:47:02.105Z,11.77
2022-10-21T21:49:30.783Z,11.77
2022-10-21T21:51:59.343Z,11.78
2022-10-21T21:54:27.923Z,11.76
2022-10-21T21:57:26.208Z,11.71
2022-10-21T21:59:47.729Z,11.71
2022-10-21T22:02:17.663Z,11.71
2022-10-21T22:04:46.223Z,11.72
2022-10-21T22:07:14.845Z,11.70
2022-10-21T22:09:43.408Z,11.68
2022-10-21T22:12:14.470Z,11.63
2022-10-21T22:14:43.803Z,11.60
2022-10-21T22:17:12.408Z,11.63
2022-10-21T22:19:42.593Z,11.59
2022-10-21T22:22:11.434Z,11.56
2022-10-21T22:24:40.467Z,11.55
2022-10-21T22:27:09.774Z,11.49
2022-10-21T22:29:38.376Z,11.47
2022-10-21T22:32:07.876Z,11.42
2022-10-21T22:34:36.415Z,11.38
2022-10-21T22:37:06.405Z,11.37
2022-10-21T22:39:34.956Z,11.37
2022-10-21T22:42:03.555Z,11.38
2022-10-21T22:44:32.666Z,11.36
2022-10-21T22:47:01.247Z,11.33
2022-10-21T22:49:29.915Z,11.32
2022-10-21T22:51:58.555Z,11.28
2022-10-21T22:54:48.070Z,11.25
2022-10-21T22:57:17.178Z,11.20
2022-10-21T22:59:50.616Z,11.21
2022-10-21T23:02:22.342Z,11.13
2022-10-21T23:04:50.784Z,11.13
2022-10-21T23:07:19.385Z,11.09
2022-10-21T23:09:51.773Z,11.07
2022-10-21T23:12:20.487Z,11.01
2022-10-21T23:14:49.038Z,10.97
2022-10-21T23:17:17.947Z,10.94
2022-10-21T23:19:46.529Z,10.95
2022-10-21T23:22:15.754Z,10.92
2022-10-21T23:24:44.465Z,10.89
2022-10-21T23:27:14.660Z,10.88
2022-10-21T23:29:43.376Z,10.87
2022-10-21T23:32:12.338Z,10.81
2022-10-21T23:34:40.967Z,10.74
2022-10-21T23:37:09.567Z,10.71
2022-10-21T23:39:38.407Z,10.69
2022-10-21T23:42:07.145Z,10.66
2022-10-21T23:44:37.145Z,10.64
2022-10-21T23:47:07.437Z,10.60
2022-10-21T23:49:36.118Z,10.51
2022-10-21T23:52:06.333Z,10.45
2022-10-21T23:54:35.143Z,10.38
2022-10-21T23:57:03.673Z,10.30
2022-10-21T23:59:32.375Z,10.27
